createdAt,value
2022-12-14T00:01:37.972Z,-2.50
2022-12-14T00:04:05.015Z,-2.50
2022-12-14T00:06:33.194Z,-2.50
2022-12-14T00:09:02.875Z,-2.50
2022-12-14T00:11:30.179Z,-2.40
2022-12-14T00:13:59.892Z,-2.50
2022-12-14T00:16:29.858Z,-2.50
2022-12-14T00:18:58.464Z,-2.50
2022-12-14T00:21:26.822Z,-2.50
2022-12-14T00:23:54.036Z,-2.50
2022-12-14T00:26:23.149Z,-2.50
2022-12-14T00:28:52.383Z,-2.50
2022-12-14T00:31:19.876Z,-2.40
2022-12-14T00:33:47.067Z,-2.50
2022-12-14T00:36:15.316Z,-2.50
2022-12-14T00:38:43.132Z,-2.50
2022-12-14T00:41:11.244Z,-2.50
2022-12-14T00:43:38.542Z,-2.40
2022-12-14T00:46:06.024Z,-2.40
2022-12-14T00:48:33.331Z,-2.50
2022-12-14T00:51:00.397Z,-2.50
2022-12-14T00:53:27.283Z,-2.40
2022-12-14T00:55:54.550Z,-2.40
2022-12-14T00:58:24.565Z,-2.40
2022-12-14T01:01:06.673Z,-2.40
2022-12-14T01:03:34.535Z,-2.40
2022-12-14T01:06:02.218Z,-2.40
2022-12-14T01:08:35.793Z,-2.40
2022-12-14T01:11:07.286Z,-2.40
2022-12-14T01:13:35.528Z,-2.40
2022-12-14T01:16:06.921Z,-2.40
2022-12-14T01:18:35.680Z,-2.40
2022-12-14T01:21:12.217Z,-2.30
2022-12-14T01:23:39.588Z,-2.40
2022-12-14T01:26:06.427Z,-2.30
2022-12-14T01:28:35.097Z,-2.30
2022-12-14T01:31:07.534Z,-2.30
2022-12-14T01:33:34.449Z,-2.30
2022-12-14T01:36:09.875Z,-2.30
2022-12-14T01:38:37.241Z,-2.40
2022-12-14T01:41:05.238Z,-2.30
2022-12-14T01:43:52.824Z,-2.40
2022-12-14T01:46:34.199Z,-2.40
2022-12-14T01:49:13.468Z,-2.40
2022-12-14T01:51:44.150Z,-2.30
2022-12-14T01:54:12.623Z,-2.30
2022-12-14T01:56:42.356Z,-2.30
2022-12-14T01:59:13.791Z,-2.30
2022-12-14T02:01:41.327Z,-2.30
2022-12-14T02:04:09.949Z,-2.30
2022-12-14T02:06:39.369Z,-2.30
2022-12-14T02:09:11.210Z,-2.30
2022-12-14T02:11:47.146Z,-2.30
2022-12-14T02:14:14.057Z,-2.30
2022-12-14T02:16:41.461Z,-2.30
2022-12-14T02:19:08.335Z,-2.30
2022-12-14T02:21:55.336Z,-2.30
2022-12-14T02:24:28.027Z,-2.30
2022-12-14T02:27:13.809Z,-2.30
2022-12-14T02:30:01.856Z,-2.30
2022-12-14T02:32:40.383Z,-2.20
2022-12-14T02:35:28.434Z,-2.20
2022-12-14T02:38:02.968Z,-2.20
2022-12-14T02:40:48.793Z,-2.20
2022-12-14T02:43:15.820Z,-2.20
2022-12-14T02:46:04.646Z,-2.20
2022-12-14T02:48:39.222Z,-2.30
2022-12-14T02:51:14.783Z,-2.20
2022-12-14T02:53:49.192Z,-2.20
2022-12-14T02:56:22.723Z,-2.20
2022-12-14T02:58:51.205Z,-2.20
2022-12-14T03:01:24.051Z,-2.20
2022-12-14T03:03:52.016Z,-2.20
2022-12-14T03:06:30.700Z,-2.20
2022-12-14T03:09:03.323Z,-2.10
2022-12-14T03:11:43.235Z,-2.10
2022-12-14T03:14:32.241Z,-2.10
2022-12-14T03:17:14.113Z,-2.10
2022-12-14T03:19:58.599Z,-2.00
2022-12-14T03:22:46.491Z,-2.10
2022-12-14T03:25:18.483Z,-2.10
2022-12-14T03:27:53.604Z,-2.10
2022-12-14T03:30:37.207Z,-2.10
2022-12-14T03:33:13.510Z,-2.10
2022-12-14T03:35:48.604Z,-2.10
2022-12-14T03:38:26.665Z,-2.10
2022-12-14T03:41:15.724Z,-2.10
2022-12-14T03:43:53.353Z,-2.20
2022-12-14T03:46:32.468Z,-2.10
2022-12-14T03:49:20.388Z,-2.10
2022-12-14T03:52:09.402Z,-2.10
2022-12-14T03:54:54.361Z,-2.10
2022-12-14T03:57:28.327Z,-2.10
2022-12-14T04:00:12.334Z,-2.10
2022-12-14T04:02:54.023Z,-2.10
2022-12-14T04:05:49.274Z,-2.10
2022-12-14T04:08:36.511Z,-2.10
2022-12-14T04:11:25.774Z,-2.10
2022-12-14T04:14:26.555Z,-2.10
2022-12-14T04:17:14.012Z,-2.10
2022-12-14T04:20:01.204Z,-2.10
2022-12-14T04:22:32.984Z,-2.10
2022-12-14T04:25:28.066Z,-2.10
2022-12-14T04:28:04.192Z,-2.10
2022-12-14T04:30:35.375Z,-2.10
2022-12-14T04:33:27.175Z,-2.10
2022-12-14T04:35:58.766Z,-2.10
2022-12-14T04:38:38.063Z,-2.10
2022-12-14T04:41:11.414Z,-2.10
2022-12-14T04:43:42.357Z,-2.10
2022-12-14T04:46:12.965Z,-2.10
2022-12-14T04:48:45.345Z,-2.10
2022-12-14T04:51:23.415Z,-2.10
2022-12-14T04:53:55.932Z,-2.10
2022-12-14T04:56:32.055Z,-2.10
2022-12-14T04:58:59.188Z,-2.10
2022-12-14T05:01:52.176Z,-2.10
2022-12-14T05:04:56.725Z,-2.10
2022-12-14T05:07:50.425Z,-2.10
2022-12-14T05:10:37.768Z,-2.10
2022-12-14T05:13:22.427Z,-2.10
2022-12-14T05:15:52.473Z,-2.10
2022-12-14T05:18:19.804Z,-2.10
2022-12-14T05:20:47.851Z,-2.20
2022-12-14T05:23:15.630Z,-2.20
2022-12-14T05:25:42.792Z,-2.20
2022-12-14T05:28:12.555Z,-2.10
2022-12-14T05:30:39.696Z,-2.10
2022-12-14T05:33:06.672Z,-2.20
2022-12-14T05:35:33.563Z,-2.10
2022-12-14T05:38:00.435Z,-2.10
2022-12-14T05:40:27.371Z,-2.10
2022-12-14T05:43:04.852Z,-2.00
2022-12-14T05:45:31.933Z,-2.00
2022-12-14T05:47:58.850Z,-2.00
2022-12-14T05:50:25.752Z,-2.00
2022-12-14T05:52:53.031Z,-2.00
2022-12-14T05:55:19.861Z,-2.00
2022-12-14T05:57:46.732Z,-2.00
2022-12-14T06:00:14.169Z,-2.00
2022-12-14T06:02:41.048Z,-1.90
2022-12-14T06:05:08.251Z,-1.90
2022-12-14T06:07:35.149Z,-1.90
2022-12-14T06:10:01.997Z,-2.00
2022-12-14T06:12:28.832Z,-2.00
2022-12-14T06:14:55.673Z,-2.00
2022-12-14T06:17:22.619Z,-2.00
2022-12-14T06:19:50.211Z,-2.00
2022-12-14T06:22:17.911Z,-2.00
2022-12-14T06:24:44.763Z,-1.90
2022-12-14T06:27:11.568Z,-1.90
2022-12-14T06:29:38.442Z,-2.00
2022-12-14T06:32:05.433Z,-1.90
2022-12-14T06:34:38.071Z,-1.90
2022-12-14T06:37:06.411Z,-1.90
2022-12-14T06:39:33.287Z,-1.90
2022-12-14T06:42:00.165Z,-1.90
2022-12-14T06:44:27.038Z,-1.90
2022-12-14T06:46:54.066Z,-1.90
2022-12-14T06:49:20.967Z,-1.90
2022-12-14T06:51:48.215Z,-1.90
2022-12-14T06:54:16.567Z,-1.90
2022-12-14T06:56:45.339Z,-1.90
2022-12-14T06:59:13.243Z,-1.90
2022-12-14T07:01:40.606Z,-1.90
2022-12-14T07:04:09.296Z,-1.90
2022-12-14T07:06:41.347Z,-1.90
2022-12-14T07:09:12.006Z,-1.90
2022-12-14T07:11:38.894Z,-1.90
2022-12-14T07:14:07.101Z,-1.80
2022-12-14T07:16:35.532Z,-1.80
2022-12-14T07:19:02.434Z,-1.80
2022-12-14T07:21:29.516Z,-1.80
2022-12-14T07:23:56.475Z,-1.70
2022-12-14T07:26:25.999Z,-1.70
2022-12-14T07:28:53.513Z,-1.60
2022-12-14T07:31:25.824Z,-1.70
2022-12-14T07:33:54.938Z,-1.60
2022-12-14T07:36:22.552Z,-1.70
2022-12-14T07:38:50.770Z,-1.60
2022-12-14T07:41:23.766Z,-1.60
2022-12-14T07:43:52.326Z,-1.60
2022-12-14T07:46:21.956Z,-1.60
2022-12-14T07:48:54.307Z,-1.60
2022-12-14T07:51:23.873Z,-1.50
2022-12-14T07:53:51.614Z,-1.50
2022-12-14T07:56:21.905Z,-1.50
2022-12-14T07:58:49.430Z,-1.50
2022-12-14T08:01:19.210Z,-1.40
2022-12-14T08:03:48.552Z,-1.40
2022-12-14T08:06:16.833Z,-1.50
2022-12-14T08:08:43.739Z,-1.50
2022-12-14T08:11:11.941Z,-1.50
2022-12-14T08:13:39.227Z,-1.50
2022-12-14T08:16:12.212Z,-1.70
2022-12-14T08:18:39.081Z,-1.70
2022-12-14T08:21:08.178Z,-1.70
2022-12-14T08:23:35.604Z,-1.70
2022-12-14T08:26:03.663Z,-1.70
2022-12-14T08:28:31.784Z,-1.70
2022-12-14T08:31:02.887Z,-1.90
2022-12-14T08:33:30.106Z,-2.00
2022-12-14T08:35:57.143Z,-2.00
2022-12-14T08:38:24.019Z,-2.00
2022-12-14T08:40:50.862Z,-1.90
2022-12-14T08:43:23.236Z,-1.90
2022-12-14T08:45:54.376Z,-1.80
2022-12-14T08:48:21.196Z,-1.80
2022-12-14T08:50:49.906Z,-1.80
2022-12-14T08:53:17.370Z,-1.80
2022-12-14T08:55:44.890Z,-1.80
2022-12-14T08:58:12.085Z,-1.80
2022-12-14T09:00:39.044Z,-1.80
2022-12-14T09:03:06.976Z,-1.70
2022-12-14T09:05:35.359Z,-1.70
2022-12-14T09:08:02.227Z,-1.60
2022-12-14T09:10:29.063Z,-1.70
2022-12-14T09:12:55.945Z,-1.60
2022-12-14T09:15:22.879Z,-1.60
2022-12-14T09:17:50.923Z,-1.60
2022-12-14T09:20:19.049Z,-1.60
2022-12-14T09:22:46.212Z,-1.50
2022-12-14T09:25:13.047Z,-1.50
2022-12-14T09:27:39.867Z,-1.50
2022-12-14T09:30:07.112Z,-1.50
2022-12-14T09:32:33.950Z,-1.40
2022-12-14T09:35:00.824Z,-1.50
2022-12-14T09:37:27.734Z,-1.50
2022-12-14T09:39:54.780Z,-1.50
2022-12-14T09:42:51.833Z,-1.50
2022-12-14T09:45:30.381Z,-1.40
2022-12-14T09:48:08.007Z,-1.40
2022-12-14T09:50:35.825Z,-1.40
2022-12-14T09:53:07.373Z,-1.40
2022-12-14T09:55:56.534Z,-1.40
2022-12-14T09:58:29.958Z,-1.40
2022-12-14T10:01:18.652Z,-1.30
2022-12-14T10:04:24.672Z,-1.30
2022-12-14T10:06:56.780Z,-1.20
2022-12-14T10:09:38.642Z,-1.20
2022-12-14T10:12:31.028Z,-1.20
2022-12-14T10:15:49.091Z,-1.20
2022-12-14T10:18:57.639Z,-1.20
2022-12-14T10:21:23.024Z,-1.20
2022-12-14T10:24:00.164Z,-1.20
2022-12-14T10:26:36.208Z,-1.20
2022-12-14T10:29:09.430Z,-1.20
2022-12-14T10:31:48.186Z,-1.20
2022-12-14T10:34:24.925Z,-1.10
2022-12-14T10:36:58.309Z,-1.10
2022-12-14T10:39:37.083Z,-1.10
2022-12-14T10:42:20.019Z,-1.00
2022-12-14T10:48:12.924Z,-0.90
2022-12-14T10:51:00.006Z,-0.90
2022-12-14T10:53:51.545Z,-0.90
2022-12-14T10:56:33.652Z,-0.90
2022-12-14T10:59:20.699Z,-0.90
2022-12-14T11:02:02.175Z,-0.80
2022-12-14T11:04:31.203Z,-0.80
2022-12-14T11:07:04.365Z,-0.70
2022-12-14T11:09:31.828Z,-0.70
2022-12-14T11:12:13.759Z,-0.70
2022-12-14T11:15:00.256Z,-0.70
2022-12-14T11:17:30.125Z,-0.70
2022-12-14T11:20:08.998Z,-0.70
2022-12-14T11:22:52.728Z,-0.60
2022-12-14T11:25:40.732Z,-0.60
2022-12-14T11:28:36.141Z,-0.50
2022-12-14T11:31:09.052Z,-0.60
2022-12-14T11:33:45.322Z,-0.50
2022-12-14T11:36:32.742Z,-0.50
2022-12-14T11:39:02.470Z,-0.50
2022-12-14T11:41:38.470Z,-0.50
2022-12-14T11:44:17.303Z,-0.40
2022-12-14T11:46:49.736Z,-0.40
2022-12-14T11:49:43.375Z,-0.50
2022-12-14T11:52:19.846Z,-0.40
2022-12-14T11:55:12.225Z,-0.40
2022-12-14T11:57:55.852Z,-0.40
2022-12-14T12:00:46.741Z,-0.30
2022-12-14T12:03:29.499Z,-0.30
2022-12-14T12:06:02.619Z,-0.30
2022-12-14T12:08:33.371Z,-0.30
2022-12-14T12:11:05.150Z,-0.30
2022-12-14T12:13:41.687Z,-0.40
2022-12-14T12:16:21.909Z,-0.40
2022-12-14T12:19:25.844Z,-0.40
2022-12-14T12:21:53.881Z,-0.50
2022-12-14T12:25:08.666Z,-0.50
2022-12-14T12:27:34.020Z,-0.50
2022-12-14T12:30:08.338Z,-0.40
2022-12-14T12:32:42.637Z,-0.50
2022-12-14T12:35:39.947Z,-0.40
2022-12-14T12:38:26.206Z,-0.50
2022-12-14T12:41:24.008Z,-0.50
2022-12-14T12:44:22.539Z,-0.50
2022-12-14T12:47:28.163Z,-0.50
2022-12-14T12:50:07.207Z,-0.50
2022-12-14T12:52:48.467Z,-0.50
2022-12-14T12:55:19.066Z,-0.40
2022-12-14T12:57:50.593Z,-0.40
2022-12-14T13:00:22.878Z,-0.40
2022-12-14T13:02:54.768Z,-0.40
2022-12-14T13:08:23.926Z,-0.30
2022-12-14T13:11:24.679Z,-0.30
2022-12-14T13:13:46.996Z,-0.30
2022-12-14T13:16:27.212Z,-0.30
2022-12-14T13:21:50.946Z,-0.30
2022-12-14T13:24:20.789Z,-0.30
2022-12-14T13:27:06.200Z,-0.30
2022-12-14T13:29:51.462Z,-0.30
2022-12-14T13:32:21.149Z,-0.30
2022-12-14T13:35:26.149Z,-0.40
2022-12-14T13:38:04.730Z,-0.40
2022-12-14T13:40:56.323Z,-0.40
2022-12-14T13:43:52.059Z,-0.50
2022-12-14T13:46:23.505Z,-0.50
2022-12-14T13:48:55.591Z,-0.50
2022-12-14T13:51:38.258Z,-0.60
2022-12-14T13:54:07.947Z,-0.60
2022-12-14T13:56:38.968Z,-0.60
2022-12-14T13:59:37.012Z,-0.60
2022-12-14T14:02:06.114Z,-0.60
2022-12-14T14:04:35.778Z,-0.70
2022-12-14T14:07:25.920Z,-0.70
2022-12-14T14:09:55.719Z,-0.70
2022-12-14T14:12:39.139Z,-0.70
2022-12-14T14:15:08.913Z,-0.70
2022-12-14T14:17:42.860Z,-0.70
2022-12-14T14:20:28.447Z,-0.70
2022-12-14T14:23:16.209Z,-0.80
2022-12-14T14:25:48.790Z,-0.80
2022-12-14T14:28:22.695Z,-0.90
2022-12-14T14:30:54.241Z,-0.80
2022-12-14T14:33:47.272Z,-0.90
2022-12-14T14:36:37.745Z,-0.90
2022-12-14T14:39:31.441Z,-0.90
2022-12-14T14:41:56.390Z,-0.80
2022-12-14T14:44:37.846Z,-0.90
2022-12-14T14:47:28.936Z,-0.90
2022-12-14T14:50:14.240Z,-1.00
2022-12-14T14:52:41.609Z,-1.00
2022-12-14T14:58:22.492Z,-1.00
2022-12-14T15:00:52.636Z,-1.00
2022-12-14T15:03:43.197Z,-1.10
2022-12-14T15:06:16.268Z,-1.10
2022-12-14T15:09:09.086Z,-1.10
2022-12-14T15:11:48.871Z,-1.10
2022-12-14T15:14:18.493Z,-1.10
2022-12-14T15:16:45.841Z,-1.20
2022-12-14T15:19:36.229Z,-1.10
2022-12-14T15:22:09.379Z,-1.20
2022-12-14T15:24:42.175Z,-1.20
2022-12-14T15:27:17.831Z,-1.20
2022-12-14T15:29:46.738Z,-1.20
2022-12-14T15:32:18.527Z,-1.10
2022-12-14T15:35:07.652Z,-1.10
2022-12-14T15:37:41.617Z,-1.10
2022-12-14T15:40:23.930Z,-1.10
2022-12-14T15:42:58.516Z,-1.10
2022-12-14T15:45:41.343Z,-1.20
2022-12-14T15:48:15.201Z,-1.20
2022-12-14T15:50:46.047Z,-1.20
2022-12-14T15:53:19.298Z,-1.20
2022-12-14T15:55:56.338Z,-1.10
2022-12-14T15:58:27.234Z,-1.10
2022-12-14T16:00:58.249Z,-1.20
2022-12-14T16:03:44.746Z,-1.10
2022-12-14T16:06:14.316Z,-1.10
2022-12-14T16:08:57.749Z,-1.10
2022-12-14T16:11:47.977Z,-1.10
2022-12-14T16:14:17.859Z,-1.10
2022-12-14T16:16:45.159Z,-1.10
2022-12-14T16:19:27.953Z,-1.10
2022-12-14T16:22:21.525Z,-1.20
2022-12-14T16:25:07.529Z,-1.20
2022-12-14T16:27:51.820Z,-1.20
2022-12-14T16:30:24.099Z,-1.20
2022-12-14T16:33:03.440Z,-1.20
2022-12-14T16:35:34.261Z,-1.20
2022-12-14T16:38:08.509Z,-1.10
2022-12-14T16:40:38.681Z,-1.10
2022-12-14T16:43:07.791Z,-1.10
2022-12-14T16:45:44.132Z,-1.10
2022-12-14T16:48:19.829Z,-1.10
2022-12-14T16:51:10.455Z,-1.10
2022-12-14T16:53:34.036Z,-1.10
2022-12-14T16:56:03.265Z,-1.10
2022-12-14T16:58:30.252Z,-1.10
2022-12-14T17:00:59.691Z,-1.10
2022-12-14T17:03:30.553Z,-1.10
2022-12-14T17:06:01.456Z,-1.10
2022-12-14T17:08:29.061Z,-1.10
2022-12-14T17:10:55.929Z,-1.10
2022-12-14T17:13:23.227Z,-1.10
2022-12-14T17:15:55.536Z,-1.10
2022-12-14T17:18:25.023Z,-1.10
2022-12-14T17:20:51.891Z,-1.10
2022-12-14T17:23:19.013Z,-1.10
2022-12-14T17:25:47.907Z,-1.10
2022-12-14T17:28:23.711Z,-1.10
2022-12-14T17:30:54.321Z,-1.10
2022-12-14T17:33:21.229Z,-1.10
2022-12-14T17:35:48.184Z,-1.10
2022-12-14T17:38:17.788Z,-1.10
2022-12-14T17:40:46.878Z,-1.10
2022-12-14T17:43:18.208Z,-1.10
2022-12-14T17:45:45.255Z,-1.20
2022-12-14T17:48:14.280Z,-1.10
2022-12-14T17:50:43.968Z,-1.10
2022-12-14T17:53:15.938Z,-1.10
2022-12-14T17:55:42.907Z,-1.10
2022-12-14T17:58:13.847Z,-1.10
2022-12-14T18:00:59.435Z,-1.20
2022-12-14T18:03:27.938Z,-1.10
2022-12-14T18:05:55.266Z,-1.20
2022-12-14T18:08:23.472Z,-1.20
2022-12-14T18:10:54.979Z,-1.20
2022-12-14T18:13:21.834Z,-1.30
2022-12-14T18:15:50.827Z,-1.40
2022-12-14T18:18:20.115Z,-1.40
2022-12-14T18:20:51.145Z,-1.50
2022-12-14T18:23:18.970Z,-1.50
2022-12-14T18:25:52.503Z,-1.60
2022-12-14T18:28:19.944Z,-1.50
2022-12-14T18:30:55.700Z,-1.60
2022-12-14T18:33:25.524Z,-1.60
2022-12-14T18:35:53.597Z,-1.70
2022-12-14T18:38:21.028Z,-1.70
2022-12-14T18:40:50.299Z,-1.70
2022-12-14T18:43:23.753Z,-1.80
2022-12-14T18:45:52.108Z,-1.80
2022-12-14T18:48:19.322Z,-1.80
2022-12-14T18:50:46.332Z,-1.70
2022-12-14T18:53:18.971Z,-1.80
2022-12-14T18:55:46.567Z,-1.70
2022-12-14T18:58:20.001Z,-1.80
2022-12-14T19:00:48.350Z,-1.80
2022-12-14T19:03:15.467Z,-1.80
2022-12-14T19:05:42.595Z,-1.80
2022-12-14T19:08:10.687Z,-1.80
2022-12-14T19:10:41.050Z,-1.80
2022-12-14T19:13:10.502Z,-1.90
2022-12-14T19:15:37.440Z,-1.90
2022-12-14T19:18:04.364Z,-1.90
2022-12-14T19:20:31.324Z,-2.00
2022-12-14T19:22:58.216Z,-2.00
2022-12-14T19:25:25.215Z,-2.00
2022-12-14T19:30:39.819Z,-2.20
2022-12-14T19:33:06.739Z,-2.20
2022-12-14T19:35:33.629Z,-2.20
2022-12-14T19:38:00.533Z,-2.30
2022-12-14T19:40:27.447Z,-2.30
2022-12-14T19:42:54.402Z,-2.30
2022-12-14T19:45:21.304Z,-2.40
2022-12-14T19:47:48.220Z,-2.40
2022-12-14T19:50:15.545Z,-2.40
2022-12-14T19:52:43.090Z,-2.50
2022-12-14T19:55:10.774Z,-2.50
2022-12-14T19:57:39.205Z,-2.50
2022-12-14T20:00:09.938Z,-2.60
2022-12-14T20:02:37.763Z,-2.60
2022-12-14T20:05:05.541Z,-2.60
2022-12-14T20:07:32.485Z,-2.80
2022-12-14T20:09:59.315Z,-2.80
2022-12-14T20:12:26.428Z,-2.70
2022-12-14T20:14:53.343Z,-2.80
2022-12-14T20:17:20.275Z,-2.80
2022-12-14T20:19:47.177Z,-2.80
2022-12-14T20:22:15.116Z,-2.90
2022-12-14T20:24:42.614Z,-2.90
2022-12-14T20:27:09.537Z,-3.00
2022-12-14T20:29:37.568Z,-3.00
2022-12-14T20:32:04.522Z,-3.20
2022-12-14T20:34:33.184Z,-3.20
2022-12-14T20:37:00.593Z,-3.20
2022-12-14T20:39:27.527Z,-3.20
2022-12-14T20:41:54.348Z,-3.30
2022-12-14T20:44:21.300Z,-3.20
2022-12-14T20:46:51.830Z,-3.30
2022-12-14T20:49:21.330Z,-3.30
2022-12-14T20:51:48.551Z,-3.20
2022-12-14T20:54:18.266Z,-3.20
2022-12-14T20:56:49.618Z,-3.20
2022-12-14T20:59:17.384Z,-3.20
2022-12-14T21:01:46.831Z,-3.20
2022-12-14T21:04:17.103Z,-3.30
2022-12-14T21:06:43.982Z,-3.30
2022-12-14T21:09:11.746Z,-3.40
2022-12-14T21:12:00.476Z,-3.40
2022-12-14T21:14:30.095Z,-3.40
2022-12-14T21:16:57.172Z,-3.30
2022-12-14T21:19:24.225Z,-3.30
2022-12-14T21:21:53.905Z,-3.40
2022-12-14T21:24:44.677Z,-3.40
2022-12-14T21:27:21.870Z,-3.30
2022-12-14T21:29:49.852Z,-3.40
2022-12-14T21:32:18.339Z,-3.30
2022-12-14T21:34:45.968Z,-3.40
2022-12-14T21:37:13.289Z,-3.40
2022-12-14T21:39:40.702Z,-3.50
2022-12-14T21:42:10.742Z,-3.50
2022-12-14T21:44:38.679Z,-3.60
2022-12-14T21:47:08.628Z,-3.60
2022-12-14T21:49:40.624Z,-3.70
2022-12-14T21:52:08.575Z,-3.70
2022-12-14T21:54:35.977Z,-3.70
2022-12-14T21:57:21.387Z,-3.70
2022-12-14T21:59:48.289Z,-3.70
2022-12-14T22:02:25.911Z,-3.70
2022-12-14T22:04:56.373Z,-3.50
2022-12-14T22:07:25.409Z,-3.50
2022-12-14T22:09:52.290Z,-3.50
2022-12-14T22:12:19.141Z,-3.50
2022-12-14T22:14:45.987Z,-3.40
2022-12-14T22:17:14.753Z,-3.40
2022-12-14T22:19:41.968Z,-3.30
2022-12-14T22:22:13.975Z,-3.40
2022-12-14T22:24:41.002Z,-3.40
2022-12-14T22:27:08.765Z,-3.40
2022-12-14T22:29:35.648Z,-3.50
2022-12-14T22:32:02.951Z,-3.60
2022-12-14T22:34:29.866Z,-3.70
2022-12-14T22:36:56.787Z,-3.60
2022-12-14T22:39:23.591Z,-3.70
2022-12-14T22:41:50.589Z,-3.70
2022-12-14T22:44:17.445Z,-3.70
2022-12-14T22:46:44.389Z,-3.70
2022-12-14T22:49:18.500Z,-3.70
2022-12-14T22:51:45.848Z,-3.70
2022-12-14T22:54:20.330Z,-3.70
2022-12-14T22:56:54.495Z,-3.60
2022-12-14T22:59:36.414Z,-3.60
2022-12-14T23:02:04.231Z,-3.60
2022-12-14T23:04:31.767Z,-3.50
2022-12-14T23:06:58.749Z,-3.60
2022-12-14T23:09:44.340Z,-3.50
2022-12-14T23:12:29.919Z,-3.60
2022-12-14T23:15:15.391Z,-3.50
2022-12-14T23:18:00.984Z,-3.50
2022-12-14T23:20:46.504Z,-3.50
2022-12-14T23:23:32.083Z,-3.60
2022-12-14T23:26:23.697Z,-3.60
2022-12-14T23:29:09.282Z,-3.60
2022-12-14T23:31:54.914Z,-3.60
2022-12-14T23:34:40.554Z,-3.60
2022-12-14T23:37:25.973Z,-3.50
2022-12-14T23:40:11.443Z,-3.50
2022-12-14T23:42:56.982Z,-3.50
2022-12-14T23:45:42.293Z,-3.40
2022-12-14T23:48:27.972Z,-3.40
2022-12-14T23:51:13.414Z,-3.40
2022-12-14T23:53:59.175Z,-3.30
2022-12-14T23:56:44.717Z,-3.40
2022-12-14T23:59:32.673Z,-3.40
